Terminal Aerodrome Forecast
Issued by NWS

Current Version | Previous Version | Text Only | Print | Product List | Glossary Off
Versions: 1 2 3 4 5 6 7 8 9 10 11 12 13 14 15 16 17 18 19 20

000
FTUS41 KPBZ 170500
TAFMGW
TAF
KMGW 170533Z 1706/1806 00000KT P6SM SKC
     FM170800 00000KT 4SM BR SKC
     FM171000 00000KT 1SM BR SCT002
     FM171400 29005KT P6SM SCT050=

USA.gov is the U.S. government's official web portal to all federal, state and local government web resources and services.